Gravatai, Brazil
Current Conditions -  °F | °C
As of 12:00 AM on Sunday 21 Dec 2014 (Local Time) from SBCO Reporting Station
Light Rain Light Rain  
Wind Chill: 70°   Ceiling: 3000
Heat Index: 70°   Visibility: 5mi
Dew Point: 70°   Wind: 6mph
Humidity: 100%   Direction: 70°ENE
Pressure: 29.77"   Gusts: NA
Location:  29.95°S, 50.99°W
Report Text: SBCO 210200Z 07005KT 8000 -RA FEW010 BKN030 OVC100 21/21 Q1008 RETS
Loading
Personal Weather Stations






























Interactive Weather Map New forecast layout! Learn more

10-Day Weather Forecast

Advertisements
Track Severe Weather on mobile